sensor_id;sensor_type;location;lat;lon;timestamp;P1;durP1;ratioP1;P2;durP2;ratioP2
11414;SDS011;5763;42.714;23.244;2022-09-03T00:02:30;5.30;;;4.80;;
11414;SDS011;5763;42.714;23.244;2022-09-03T00:05:02;5.13;;;4.50;;
11414;SDS011;5763;42.714;23.244;2022-09-03T00:07:38;4.78;;;4.38;;
11414;SDS011;5763;42.714;23.244;2022-09-03T00:10:15;5.25;;;4.75;;
11414;SDS011;5763;42.714;23.244;2022-09-03T00:12:47;5.10;;;4.60;;
11414;SDS011;5763;42.714;23.244;2022-09-03T00:15:17;5.95;;;5.35;;
11414;SDS011;5763;42.714;23.244;2022-09-03T00:17:46;6.53;;;4.85;;
11414;SDS011;5763;42.714;23.244;2022-09-03T00:20:18;6.03;;;5.43;;
11414;SDS011;5763;42.714;23.244;2022-09-03T00:22:50;6.60;;;5.57;;
11414;SDS011;5763;42.714;23.244;2022-09-03T00:25:21;7.05;;;5.07;;
11414;SDS011;5763;42.714;23.244;2022-09-03T00:27:52;4.50;;;4.10;;
11414;SDS011;5763;42.714;23.244;2022-09-03T00:30:22;6.60;;;4.80;;
11414;SDS011;5763;42.714;23.244;2022-09-03T00:32:51;5.63;;;4.85;;
11414;SDS011;5763;42.714;23.244;2022-09-03T00:35:24;5.50;;;4.75;;
11414;SDS011;5763;42.714;23.244;2022-09-03T00:37:55;5.32;;;4.70;;
11414;SDS011;5763;42.714;23.244;2022-09-03T00:40:35;5.18;;;4.68;;
11414;SDS011;5763;42.714;23.244;2022-09-03T00:43:14;5.90;;;5.13;;
11414;SDS011;5763;42.714;23.244;2022-09-03T00:45:49;6.72;;;4.95;;
11414;SDS011;5763;42.714;23.244;2022-09-03T00:48:22;5.18;;;4.63;;
11414;SDS011;5763;42.714;23.244;2022-09-03T00:50:57;4.78;;;4.28;;
11414;SDS011;5763;42.714;23.244;2022-09-03T00:53:46;6.00;;;5.30;;
11414;SDS011;5763;42.714;23.244;2022-09-03T00:56:25;5.55;;;5.05;;
11414;SDS011;5763;42.714;23.244;2022-09-03T00:59:06;6.07;;;4.32;;
11414;SDS011;5763;42.714;23.244;2022-09-03T01:01:43;5.50;;;4.95;;
11414;SDS011;5763;42.714;23.244;2022-09-03T01:04:22;5.20;;;4.70;;
11414;SDS011;5763;42.714;23.244;2022-09-03T01:06:55;5.47;;;4.75;;
11414;SDS011;5763;42.714;23.244;2022-09-03T01:09:36;5.30;;;4.80;;
11414;SDS011;5763;42.714;23.244;2022-09-03T01:12:15;5.65;;;4.90;;
11414;SDS011;5763;42.714;23.244;2022-09-03T01:14:56;5.68;;;4.90;;
11414;SDS011;5763;42.714;23.244;2022-09-03T01:17:33;6.82;;;5.13;;
11414;SDS011;5763;42.714;23.244;2022-09-03T01:20:30;5.60;;;4.65;;
11414;SDS011;5763;42.714;23.244;2022-09-03T01:26:13;5.70;;;4.85;;
11414;SDS011;5763;42.714;23.244;2022-09-03T01:28:54;6.10;;;5.40;;
11414;SDS011;5763;42.714;23.244;2022-09-03T01:31:32;8.38;;;5.35;;
11414;SDS011;5763;42.714;23.244;2022-09-03T01:34:11;5.32;;;4.82;;
11414;SDS011;5763;42.714;23.244;2022-09-03T01:36:47;5.75;;;5.25;;
11414;SDS011;5763;42.714;23.244;2022-09-03T01:39:28;5.72;;;5.13;;
11414;SDS011;5763;42.714;23.244;2022-09-03T01:42:05;4.95;;;4.45;;
11414;SDS011;5763;42.714;23.244;2022-09-03T01:44:49;6.05;;;5.00;;
11414;SDS011;5763;42.714;23.244;2022-09-03T01:47:27;6.05;;;4.93;;
11414;SDS011;5763;42.714;23.244;2022-09-03T01:50:04;5.68;;;4.78;;
11414;SDS011;5763;42.714;23.244;2022-09-03T01:52:38;5.75;;;5.15;;
11414;SDS011;5763;42.714;23.244;2022-09-03T01:55:17;6.28;;;5.28;;
11414;SDS011;5763;42.714;23.244;2022-09-03T01:57:56;5.47;;;4.95;;
11414;SDS011;5763;42.714;23.244;2022-09-03T02:00:29;5.65;;;4.88;;
11414;SDS011;5763;42.714;23.244;2022-09-03T02:03:01;7.35;;;5.78;;
11414;SDS011;5763;42.714;23.244;2022-09-03T02:05:31;6.10;;;5.50;;
11414;SDS011;5763;42.714;23.244;2022-09-03T02:08:00;7.18;;;5.50;;
11414;SDS011;5763;42.714;23.244;2022-09-03T02:10:31;6.00;;;5.32;;
11414;SDS011;5763;42.714;23.244;2022-09-03T02:13:05;6.47;;;5.60;;
11414;SDS011;5763;42.714;23.244;2022-09-03T02:15:38;6.72;;;6.03;;
11414;SDS011;5763;42.714;23.244;2022-09-03T02:18:12;5.35;;;4.85;;
11414;SDS011;5763;42.714;23.244;2022-09-03T02:20:44;6.55;;;5.38;;
11414;SDS011;5763;42.714;23.244;2022-09-03T02:23:13;6.72;;;5.90;;
11414;SDS011;5763;42.714;23.244;2022-09-03T02:25:43;7.55;;;6.20;;
11414;SDS011;5763;42.714;23.244;2022-09-03T02:28:14;6.68;;;5.88;;
11414;SDS011;5763;42.714;23.244;2022-09-03T02:30:43;6.70;;;5.90;;
11414;SDS011;5763;42.714;23.244;2022-09-03T02:33:10;7.75;;;5.70;;
11414;SDS011;5763;42.714;23.244;2022-09-03T02:35:38;6.80;;;5.70;;
11414;SDS011;5763;42.714;23.244;2022-09-03T02:38:10;6.35;;;5.60;;
11414;SDS011;5763;42.714;23.244;2022-09-03T02:40:39;6.60;;;5.63;;
11414;SDS011;5763;42.714;23.244;2022-09-03T02:43:08;7.20;;;6.25;;
11414;SDS011;5763;42.714;23.244;2022-09-03T02:45:40;6.38;;;5.53;;
11414;SDS011;5763;42.714;23.244;2022-09-03T02:48:15;7.35;;;6.40;;
11414;SDS011;5763;42.714;23.244;2022-09-03T02:50:47;7.00;;;5.82;;
11414;SDS011;5763;42.714;23.244;2022-09-03T02:53:15;7.18;;;6.20;;
11414;SDS011;5763;42.714;23.244;2022-09-03T02:55:43;6.55;;;5.95;;
11414;SDS011;5763;42.714;23.244;2022-09-03T02:58:11;7.18;;;6.40;;
11414;SDS011;5763;42.714;23.244;2022-09-03T03:00:39;7.43;;;6.22;;
11414;SDS011;5763;42.714;23.244;2022-09-03T03:03:09;6.38;;;5.68;;
11414;SDS011;5763;42.714;23.244;2022-09-03T03:05:40;5.95;;;5.35;;
11414;SDS011;5763;42.714;23.244;2022-09-03T03:08:11;6.00;;;5.40;;
11414;SDS011;5763;42.714;23.244;2022-09-03T03:10:39;6.55;;;5.57;;
11414;SDS011;5763;42.714;23.244;2022-09-03T03:13:09;9.57;;;6.20;;
11414;SDS011;5763;42.714;23.244;2022-09-03T03:15:37;6.95;;;5.63;;
11414;SDS011;5763;42.714;23.244;2022-09-03T03:18:06;6.15;;;5.55;;
11414;SDS011;5763;42.714;23.244;2022-09-03T03:20:38;6.30;;;5.60;;
11414;SDS011;5763;42.714;23.244;2022-09-03T03:23:07;6.65;;;6.05;;
11414;SDS011;5763;42.714;23.244;2022-09-03T03:25:36;8.55;;;5.43;;
11414;SDS011;5763;42.714;23.244;2022-09-03T03:28:06;6.18;;;5.40;;
11414;SDS011;5763;42.714;23.244;2022-09-03T03:30:36;6.60;;;6.00;;
11414;SDS011;5763;42.714;23.244;2022-09-03T03:33:07;6.60;;;5.63;;
11414;SDS011;5763;42.714;23.244;2022-09-03T03:35:35;7.45;;;5.45;;
11414;SDS011;5763;42.714;23.244;2022-09-03T03:38:07;6.20;;;5.60;;
11414;SDS011;5763;42.714;23.244;2022-09-03T03:40:36;6.28;;;5.68;;
11414;SDS011;5763;42.714;23.244;2022-09-03T03:43:04;7.45;;;6.47;;
11414;SDS011;5763;42.714;23.244;2022-09-03T03:45:32;6.65;;;5.85;;
11414;SDS011;5763;42.714;23.244;2022-09-03T03:48:00;6.13;;;5.53;;
11414;SDS011;5763;42.714;23.244;2022-09-03T03:50:28;6.63;;;5.75;;
11414;SDS011;5763;42.714;23.244;2022-09-03T03:52:59;6.65;;;5.95;;
11414;SDS011;5763;42.714;23.244;2022-09-03T03:55:27;6.13;;;5.53;;
11414;SDS011;5763;42.714;23.244;2022-09-03T03:57:55;6.88;;;6.18;;
11414;SDS011;5763;42.714;23.244;2022-09-03T04:00:25;7.22;;;6.53;;
11414;SDS011;5763;42.714;23.244;2022-09-03T04:02:52;7.72;;;6.47;;
11414;SDS011;5763;42.714;23.244;2022-09-03T04:05:19;6.70;;;5.82;;
11414;SDS011;5763;42.714;23.244;2022-09-03T04:07:47;7.28;;;6.03;;
11414;SDS011;5763;42.714;23.244;2022-09-03T04:10:17;7.15;;;6.45;;
11414;SDS011;5763;42.714;23.244;2022-09-03T04:12:45;6.75;;;5.60;;
11414;SDS011;5763;42.714;23.244;2022-09-03T04:15:13;6.65;;;5.68;;
11414;SDS011;5763;42.714;23.244;2022-09-03T04:17:42;6.68;;;5.97;;
11414;SDS011;5763;42.714;23.244;2022-09-03T04:20:09;6.10;;;5.50;;
11414;SDS011;5763;42.714;23.244;2022-09-03T04:22:36;6.38;;;5.78;;
11414;SDS011;5763;42.714;23.244;2022-09-03T04:25:04;6.88;;;6.03;;
11414;SDS011;5763;42.714;23.244;2022-09-03T04:27:32;6.78;;;6.07;;
11414;SDS011;5763;42.714;23.244;2022-09-03T04:30:00;7.40;;;6.60;;
11414;SDS011;5763;42.714;23.244;2022-09-03T04:32:28;6.38;;;5.78;;
11414;SDS011;5763;42.714;23.244;2022-09-03T04:35:12;6.50;;;5.80;;
11414;SDS011;5763;42.714;23.244;2022-09-03T04:37:40;9.10;;;6.47;;
11414;SDS011;5763;42.714;23.244;2022-09-03T04:40:07;6.85;;;6.25;;
11414;SDS011;5763;42.714;23.244;2022-09-03T04:42:36;6.70;;;5.82;;
11414;SDS011;5763;42.714;23.244;2022-09-03T04:45:03;7.10;;;6.10;;
11414;SDS011;5763;42.714;23.244;2022-09-03T04:47:30;7.05;;;5.97;;
11414;SDS011;5763;42.714;23.244;2022-09-03T04:49:57;7.43;;;6.50;;
11414;SDS011;5763;42.714;23.244;2022-09-03T04:52:27;7.78;;;6.75;;
11414;SDS011;5763;42.714;23.244;2022-09-03T04:54:55;7.05;;;6.35;;
11414;SDS011;5763;42.714;23.244;2022-09-03T04:57:22;6.35;;;5.70;;
11414;SDS011;5763;42.714;23.244;2022-09-03T04:59:51;8.25;;;5.82;;
11414;SDS011;5763;42.714;23.244;2022-09-03T05:02:18;9.02;;;5.63;;
11414;SDS011;5763;42.714;23.244;2022-09-03T05:04:46;6.03;;;5.32;;
11414;SDS011;5763;42.714;23.244;2022-09-03T05:07:13;7.15;;;6.28;;
11414;SDS011;5763;42.714;23.244;2022-09-03T05:09:41;7.53;;;6.25;;
11414;SDS011;5763;42.714;23.244;2022-09-03T05:12:08;6.53;;;5.53;;
11414;SDS011;5763;42.714;23.244;2022-09-03T05:14:37;6.32;;;5.60;;
11414;SDS011;5763;42.714;23.244;2022-09-03T05:17:06;6.32;;;5.72;;
11414;SDS011;5763;42.714;23.244;2022-09-03T05:19:33;6.07;;;5.47;;
11414;SDS011;5763;42.714;23.244;2022-09-03T05:22:01;7.65;;;5.82;;
11414;SDS011;5763;42.714;23.244;2022-09-03T05:24:30;6.68;;;5.97;;
11414;SDS011;5763;42.714;23.244;2022-09-03T05:26:57;8.00;;;6.90;;
11414;SDS011;5763;42.714;23.244;2022-09-03T05:29:24;6.93;;;5.53;;
11414;SDS011;5763;42.714;23.244;2022-09-03T05:31:53;6.40;;;5.68;;
11414;SDS011;5763;42.714;23.244;2022-09-03T05:34:22;5.90;;;5.30;;
11414;SDS011;5763;42.714;23.244;2022-09-03T05:36:50;7.25;;;6.03;;
11414;SDS011;5763;42.714;23.244;2022-09-03T05:39:18;6.30;;;5.20;;
11414;SDS011;5763;42.714;23.244;2022-09-03T05:41:45;6.53;;;5.72;;
11414;SDS011;5763;42.714;23.244;2022-09-03T05:44:14;8.05;;;6.43;;
11414;SDS011;5763;42.714;23.244;2022-09-03T05:46:41;7.28;;;6.57;;
11414;SDS011;5763;42.714;23.244;2022-09-03T05:49:08;6.72;;;5.05;;
11414;SDS011;5763;42.714;23.244;2022-09-03T05:51:37;7.32;;;5.95;;
11414;SDS011;5763;42.714;23.244;2022-09-03T05:54:04;6.65;;;5.40;;
11414;SDS011;5763;42.714;23.244;2022-09-03T05:56:33;7.25;;;6.53;;
11414;SDS011;5763;42.714;23.244;2022-09-03T05:59:02;7.05;;;5.07;;
11414;SDS011;5763;42.714;23.244;2022-09-03T06:01:32;5.57;;;5.07;;
11414;SDS011;5763;42.714;23.244;2022-09-03T06:04:02;6.90;;;6.20;;
11414;SDS011;5763;42.714;23.244;2022-09-03T06:06:31;8.02;;;6.10;;
11414;SDS011;5763;42.714;23.244;2022-09-03T06:09:02;6.93;;;5.85;;
11414;SDS011;5763;42.714;23.244;2022-09-03T06:11:31;6.75;;;6.05;;
11414;SDS011;5763;42.714;23.244;2022-09-03T06:13:59;6.53;;;5.85;;
11414;SDS011;5763;42.714;23.244;2022-09-03T06:16:29;6.78;;;6.07;;
11414;SDS011;5763;42.714;23.244;2022-09-03T06:18:58;7.90;;;6.50;;
11414;SDS011;5763;42.714;23.244;2022-09-03T06:21:26;6.38;;;5.78;;
11414;SDS011;5763;42.714;23.244;2022-09-03T06:23:56;10.60;;;7.28;;
11414;SDS011;5763;42.714;23.244;2022-09-03T06:26:26;8.20;;;6.50;;
11414;SDS011;5763;42.714;23.244;2022-09-03T06:28:55;6.90;;;6.20;;
11414;SDS011;5763;42.714;23.244;2022-09-03T06:31:24;6.53;;;5.93;;
11414;SDS011;5763;42.714;23.244;2022-09-03T06:33:52;7.00;;;6.30;;
11414;SDS011;5763;42.714;23.244;2022-09-03T06:36:21;6.90;;;6.20;;
11414;SDS011;5763;42.714;23.244;2022-09-03T06:38:50;7.45;;;6.38;;
11414;SDS011;5763;42.714;23.244;2022-09-03T06:41:18;7.20;;;6.50;;
11414;SDS011;5763;42.714;23.244;2022-09-03T06:43:50;6.93;;;5.80;;
11414;SDS011;5763;42.714;23.244;2022-09-03T06:46:19;6.57;;;5.90;;
11414;SDS011;5763;42.714;23.244;2022-09-03T06:48:47;7.63;;;6.18;;
11414;SDS011;5763;42.714;23.244;2022-09-03T06:51:15;6.95;;;6.20;;
11414;SDS011;5763;42.714;23.244;2022-09-03T06:53:44;8.75;;;6.28;;
11414;SDS011;5763;42.714;23.244;2022-09-03T06:56:13;6.65;;;5.95;;
11414;SDS011;5763;42.714;23.244;2022-09-03T06:58:42;6.25;;;5.65;;
11414;SDS011;5763;42.714;23.244;2022-09-03T07:01:11;7.70;;;6.40;;
11414;SDS011;5763;42.714;23.244;2022-09-03T07:03:41;6.20;;;5.60;;
11414;SDS011;5763;42.714;23.244;2022-09-03T07:06:10;6.15;;;5.55;;
11414;SDS011;5763;42.714;23.244;2022-09-03T07:08:38;6.38;;;5.78;;
11414;SDS011;5763;42.714;23.244;2022-09-03T07:11:07;6.93;;;6.22;;
11414;SDS011;5763;42.714;23.244;2022-09-03T07:13:37;6.75;;;6.05;;
11414;SDS011;5763;42.714;23.244;2022-09-03T07:16:06;6.22;;;5.63;;
11414;SDS011;5763;42.714;23.244;2022-09-03T07:18:37;6.35;;;5.75;;
11414;SDS011;5763;42.714;23.244;2022-09-03T07:21:05;7.35;;;6.57;;
11414;SDS011;5763;42.714;23.244;2022-09-03T07:23:34;8.98;;;6.40;;
11414;SDS011;5763;42.714;23.244;2022-09-03T07:26:03;6.85;;;6.20;;
11414;SDS011;5763;42.714;23.244;2022-09-03T07:28:33;8.23;;;7.43;;
11414;SDS011;5763;42.714;23.244;2022-09-03T07:31:01;12.90;;;8.02;;
11414;SDS011;5763;42.714;23.244;2022-09-03T07:33:31;9.68;;;8.70;;
11414;SDS011;5763;42.714;23.244;2022-09-03T07:36:02;10.15;;;7.88;;
11414;SDS011;5763;42.714;23.244;2022-09-03T07:38:31;6.43;;;5.75;;
11414;SDS011;5763;42.714;23.244;2022-09-03T07:40:58;5.95;;;5.45;;
11414;SDS011;5763;42.714;23.244;2022-09-03T07:43:37;6.10;;;5.50;;
11414;SDS011;5763;42.714;23.244;2022-09-03T07:46:11;5.82;;;5.25;;
11414;SDS011;5763;42.714;23.244;2022-09-03T07:48:39;6.30;;;5.63;;
11414;SDS011;5763;42.714;23.244;2022-09-03T07:51:07;5.65;;;5.15;;
11414;SDS011;5763;42.714;23.244;2022-09-03T07:53:34;6.18;;;5.57;;
11414;SDS011;5763;42.714;23.244;2022-09-03T07:56:02;6.47;;;5.88;;
11414;SDS011;5763;42.714;23.244;2022-09-03T07:58:30;6.57;;;5.90;;
11414;SDS011;5763;42.714;23.244;2022-09-03T08:01:02;6.43;;;4.82;;
11414;SDS011;5763;42.714;23.244;2022-09-03T08:03:30;5.28;;;4.78;;
11414;SDS011;5763;42.714;23.244;2022-09-03T08:05:59;5.13;;;4.65;;
11414;SDS011;5763;42.714;23.244;2022-09-03T08:08:28;5.40;;;4.90;;
11414;SDS011;5763;42.714;23.244;2022-09-03T08:11:02;5.80;;;5.03;;
11414;SDS011;5763;42.714;23.244;2022-09-03T08:13:29;5.40;;;4.90;;
11414;SDS011;5763;42.714;23.244;2022-09-03T08:15:58;4.57;;;4.15;;
11414;SDS011;5763;42.714;23.244;2022-09-03T08:18:25;5.95;;;5.30;;
11414;SDS011;5763;42.714;23.244;2022-09-03T08:21:01;6.78;;;6.00;;
11414;SDS011;5763;42.714;23.244;2022-09-03T08:23:29;5.68;;;5.18;;
11414;SDS011;5763;42.714;23.244;2022-09-03T08:25:59;4.65;;;4.25;;
11414;SDS011;5763;42.714;23.244;2022-09-03T08:28:27;5.65;;;5.15;;
11414;SDS011;5763;42.714;23.244;2022-09-03T08:30:58;5.05;;;4.65;;
11414;SDS011;5763;42.714;23.244;2022-09-03T08:33:30;4.90;;;4.45;;
11414;SDS011;5763;42.714;23.244;2022-09-03T08:36:03;5.22;;;4.80;;
11414;SDS011;5763;42.714;23.244;2022-09-03T08:38:33;5.70;;;5.20;;
11414;SDS011;5763;42.714;23.244;2022-09-03T08:41:04;5.80;;;5.30;;
11414;SDS011;5763;42.714;23.244;2022-09-03T08:43:36;5.72;;;5.22;;
11414;SDS011;5763;42.714;23.244;2022-09-03T08:46:14;5.07;;;4.68;;
11414;SDS011;5763;42.714;23.244;2022-09-03T08:48:42;5.28;;;4.80;;
11414;SDS011;5763;42.714;23.244;2022-09-03T08:51:09;4.63;;;4.22;;
11414;SDS011;5763;42.714;23.244;2022-09-03T08:53:40;4.85;;;4.45;;
11414;SDS011;5763;42.714;23.244;2022-09-03T08:56:13;4.72;;;4.32;;
11414;SDS011;5763;42.714;23.244;2022-09-03T08:58:46;3.97;;;3.67;;
11414;SDS011;5763;42.714;23.244;2022-09-03T09:01:15;4.45;;;4.05;;
11414;SDS011;5763;42.714;23.244;2022-09-03T09:03:54;3.90;;;3.60;;
11414;SDS011;5763;42.714;23.244;2022-09-03T09:06:32;4.68;;;4.28;;
11414;SDS011;5763;42.714;23.244;2022-09-03T09:09:11;4.43;;;4.03;;
11414;SDS011;5763;42.714;23.244;2022-09-03T09:11:49;4.20;;;3.90;;
11414;SDS011;5763;42.714;23.244;2022-09-03T09:14:25;3.70;;;3.40;;
11414;SDS011;5763;42.714;23.244;2022-09-03T09:17:00;4.63;;;3.72;;
11414;SDS011;5763;42.714;23.244;2022-09-03T09:19:45;4.00;;;3.70;;
11414;SDS011;5763;42.714;23.244;2022-09-03T09:22:26;4.30;;;3.90;;
11414;SDS011;5763;42.714;23.244;2022-09-03T09:24:58;4.28;;;3.88;;
11414;SDS011;5763;42.714;23.244;2022-09-03T09:27:29;4.55;;;3.88;;
11414;SDS011;5763;42.714;23.244;2022-09-03T09:29:57;4.55;;;4.15;;
11414;SDS011;5763;42.714;23.244;2022-09-03T09:32:26;4.30;;;4.00;;
11414;SDS011;5763;42.714;23.244;2022-09-03T09:34:54;4.60;;;4.18;;
11414;SDS011;5763;42.714;23.244;2022-09-03T09:37:21;4.30;;;3.90;;
11414;SDS011;5763;42.714;23.244;2022-09-03T09:39:56;8.73;;;3.90;;
11414;SDS011;5763;42.714;23.244;2022-09-03T09:42:26;4.50;;;4.20;;
11414;SDS011;5763;42.714;23.244;2022-09-03T09:44:55;4.45;;;4.05;;
11414;SDS011;5763;42.714;23.244;2022-09-03T09:47:35;4.72;;;4.32;;
11414;SDS011;5763;42.714;23.244;2022-09-03T09:50:13;4.68;;;4.28;;
11414;SDS011;5763;42.714;23.244;2022-09-03T09:52:42;4.00;;;3.70;;
11414;SDS011;5763;42.714;23.244;2022-09-03T09:55:13;5.05;;;4.55;;
11414;SDS011;5763;42.714;23.244;2022-09-03T09:57:42;4.15;;;3.85;;
11414;SDS011;5763;42.714;23.244;2022-09-03T10:00:10;4.00;;;3.70;;
11414;SDS011;5763;42.714;23.244;2022-09-03T10:02:38;4.20;;;3.90;;
11414;SDS011;5763;42.714;23.244;2022-09-03T10:05:13;4.68;;;4.20;;
11414;SDS011;5763;42.714;23.244;2022-09-03T10:07:52;4.15;;;3.85;;
11414;SDS011;5763;42.714;23.244;2022-09-03T10:10:22;4.80;;;4.38;;
11414;SDS011;5763;42.714;23.244;2022-09-03T10:12:51;4.47;;;4.07;;
11414;SDS011;5763;42.714;23.244;2022-09-03T10:15:24;4.60;;;4.25;;
11414;SDS011;5763;42.714;23.244;2022-09-03T10:17:59;4.28;;;3.88;;
11414;SDS011;5763;42.714;23.244;2022-09-03T10:20:33;4.60;;;4.20;;
11414;SDS011;5763;42.714;23.244;2022-09-03T10:23:14;4.53;;;4.03;;
11414;SDS011;5763;42.714;23.244;2022-09-03T10:25:51;4.70;;;4.30;;
11414;SDS011;5763;42.714;23.244;2022-09-03T10:28:28;3.30;;;3.10;;
11414;SDS011;5763;42.714;23.244;2022-09-03T10:33:57;3.90;;;3.60;;
11414;SDS011;5763;42.714;23.244;2022-09-03T10:36:27;5.10;;;4.43;;
11414;SDS011;5763;42.714;23.244;2022-09-03T10:39:01;4.80;;;4.40;;
11414;SDS011;5763;42.714;23.244;2022-09-03T10:41:39;4.13;;;3.83;;
11414;SDS011;5763;42.714;23.244;2022-09-03T10:47:14;5.88;;;4.13;;
11414;SDS011;5763;42.714;23.244;2022-09-03T10:50:06;3.97;;;3.67;;
11414;SDS011;5763;42.714;23.244;2022-09-03T10:52:42;4.35;;;4.00;;
11414;SDS011;5763;42.714;23.244;2022-09-03T10:55:24;4.30;;;3.90;;
11414;SDS011;5763;42.714;23.244;2022-09-03T10:58:05;3.58;;;3.22;;
11414;SDS011;5763;42.714;23.244;2022-09-03T11:00:45;4.97;;;3.90;;
11414;SDS011;5763;42.714;23.244;2022-09-03T11:03:27;4.80;;;4.40;;
11414;SDS011;5763;42.714;23.244;2022-09-03T11:06:10;4.40;;;4.10;;
11414;SDS011;5763;42.714;23.244;2022-09-03T11:08:41;4.50;;;4.20;;
11414;SDS011;5763;42.714;23.244;2022-09-03T11:11:15;5.18;;;4.78;;
11414;SDS011;5763;42.714;23.244;2022-09-03T11:13:47;5.07;;;4.57;;
11414;SDS011;5763;42.714;23.244;2022-09-03T11:16:19;4.03;;;3.72;;
11414;SDS011;5763;42.714;23.244;2022-09-03T11:18:52;4.40;;;4.00;;
11414;SDS011;5763;42.714;23.244;2022-09-03T11:21:22;4.28;;;3.97;;
11414;SDS011;5763;42.714;23.244;2022-09-03T11:23:53;4.28;;;3.97;;
11414;SDS011;5763;42.714;23.244;2022-09-03T11:26:36;4.65;;;4.25;;
11414;SDS011;5763;42.714;23.244;2022-09-03T11:29:08;4.20;;;3.80;;
11414;SDS011;5763;42.714;23.244;2022-09-03T11:31:49;4.18;;;3.88;;
11414;SDS011;5763;42.714;23.244;2022-09-03T11:34:27;4.05;;;3.70;;
11414;SDS011;5763;42.714;23.244;2022-09-03T11:39:43;4.93;;;4.10;;
11414;SDS011;5763;42.714;23.244;2022-09-03T11:42:22;4.25;;;3.90;;
11414;SDS011;5763;42.714;23.244;2022-09-03T11:44:58;4.00;;;3.70;;
11414;SDS011;5763;42.714;23.244;2022-09-03T11:47:36;3.65;;;3.35;;
11414;SDS011;5763;42.714;23.244;2022-09-03T11:50:06;4.18;;;3.15;;
11414;SDS011;5763;42.714;23.244;2022-09-03T11:52:41;3.40;;;3.20;;
11414;SDS011;5763;42.714;23.244;2022-09-03T11:55:07;3.95;;;3.65;;
11414;SDS011;5763;42.714;23.244;2022-09-03T11:57:38;3.90;;;3.60;;
11414;SDS011;5763;42.714;23.244;2022-09-03T12:00:09;4.60;;;3.80;;
11414;SDS011;5763;42.714;23.244;2022-09-03T12:02:42;4.32;;;3.78;;
11414;SDS011;5763;42.714;23.244;2022-09-03T12:05:13;4.50;;;4.10;;
11414;SDS011;5763;42.714;23.244;2022-09-03T12:10:53;4.72;;;4.32;;
11414;SDS011;5763;42.714;23.244;2022-09-03T12:13:27;5.43;;;4.72;;
11414;SDS011;5763;42.714;23.244;2022-09-03T12:19:06;4.55;;;4.15;;
11414;SDS011;5763;42.714;23.244;2022-09-03T12:21:38;4.57;;;4.10;;
11414;SDS011;5763;42.714;23.244;2022-09-03T12:24:06;4.28;;;3.97;;
11414;SDS011;5763;42.714;23.244;2022-09-03T12:26:37;3.80;;;3.50;;
11414;SDS011;5763;42.714;23.244;2022-09-03T12:29:17;3.40;;;3.20;;
11414;SDS011;5763;42.714;23.244;2022-09-03T12:31:49;4.32;;;3.92;;
11414;SDS011;5763;42.714;23.244;2022-09-03T12:34:17;4.13;;;3.80;;
11414;SDS011;5763;42.714;23.244;2022-09-03T12:36:48;4.30;;;3.70;;
11414;SDS011;5763;42.714;23.244;2022-09-03T12:39:17;3.88;;;3.58;;
11414;SDS011;5763;42.714;23.244;2022-09-03T12:41:59;4.95;;;4.10;;
11414;SDS011;5763;42.714;23.244;2022-09-03T12:44:29;4.80;;;4.40;;
11414;SDS011;5763;42.714;23.244;2022-09-03T12:47:03;5.25;;;4.43;;
11414;SDS011;5763;42.714;23.244;2022-09-03T12:49:36;4.53;;;4.13;;
11414;SDS011;5763;42.714;23.244;2022-09-03T12:52:05;4.18;;;3.88;;
11414;SDS011;5763;42.714;23.244;2022-09-03T12:54:39;4.13;;;3.83;;
11414;SDS011;5763;42.714;23.244;2022-09-03T12:57:13;3.95;;;3.65;;
11414;SDS011;5763;42.714;23.244;2022-09-03T12:59:45;4.22;;;3.90;;
11414;SDS011;5763;42.714;23.244;2022-09-03T13:02:18;4.32;;;3.92;;
11414;SDS011;5763;42.714;23.244;2022-09-03T13:04:48;3.05;;;2.85;;
11414;SDS011;5763;42.714;23.244;2022-09-03T13:07:20;4.18;;;3.88;;
11414;SDS011;5763;42.714;23.244;2022-09-03T13:09:55;4.70;;;3.88;;
11414;SDS011;5763;42.714;23.244;2022-09-03T13:12:29;3.83;;;3.53;;
11414;SDS011;5763;42.714;23.244;2022-09-03T13:15:03;3.60;;;3.30;;
11414;SDS011;5763;42.714;23.244;2022-09-03T13:20:28;3.33;;;3.03;;
11414;SDS011;5763;42.714;23.244;2022-09-03T13:23:06;4.32;;;3.28;;
11414;SDS011;5763;42.714;23.244;2022-09-03T13:25:41;3.20;;;2.90;;
11414;SDS011;5763;42.714;23.244;2022-09-03T13:28:19;3.97;;;3.67;;
11414;SDS011;5763;42.714;23.244;2022-09-03T13:30:59;3.25;;;2.95;;
11414;SDS011;5763;42.714;23.244;2022-09-03T13:33:36;3.20;;;2.90;;
11414;SDS011;5763;42.714;23.244;2022-09-03T13:36:08;3.38;;;2.70;;
11414;SDS011;5763;42.714;23.244;2022-09-03T13:38:41;4.10;;;3.40;;
11414;SDS011;5763;42.714;23.244;2022-09-03T13:41:12;3.47;;;3.17;;
11414;SDS011;5763;42.714;23.244;2022-09-03T13:43:46;3.50;;;3.20;;
11414;SDS011;5763;42.714;23.244;2022-09-03T13:46:20;4.25;;;3.70;;
11414;SDS011;5763;42.714;23.244;2022-09-03T13:48:56;4.53;;;3.47;;
11414;SDS011;5763;42.714;23.244;2022-09-03T13:51:56;3.75;;;3.00;;
11414;SDS011;5763;42.714;23.244;2022-09-03T13:54:29;3.92;;;3.38;;
11414;SDS011;5763;42.714;23.244;2022-09-03T13:57:01;3.63;;;3.33;;
11414;SDS011;5763;42.714;23.244;2022-09-03T13:59:32;3.90;;;3.50;;
11414;SDS011;5763;42.714;23.244;2022-09-03T14:02:19;4.22;;;3.80;;
11414;SDS011;5763;42.714;23.244;2022-09-03T14:05:00;4.82;;;3.97;;
11414;SDS011;5763;42.714;23.244;2022-09-03T14:07:41;4.40;;;3.95;;
11414;SDS011;5763;42.714;23.244;2022-09-03T14:10:20;4.00;;;3.70;;
11414;SDS011;5763;42.714;23.244;2022-09-03T14:12:49;4.25;;;3.45;;
11414;SDS011;5763;42.714;23.244;2022-09-03T14:15:28;4.75;;;3.97;;
11414;SDS011;5763;42.714;23.244;2022-09-03T14:18:01;4.18;;;3.78;;
11414;SDS011;5763;42.714;23.244;2022-09-03T14:20:42;4.35;;;3.92;;
11414;SDS011;5763;42.714;23.244;2022-09-03T14:23:21;4.40;;;4.00;;
11414;SDS011;5763;42.714;23.244;2022-09-03T14:25:56;4.90;;;4.00;;
11414;SDS011;5763;42.714;23.244;2022-09-03T14:28:29;3.40;;;3.10;;
11414;SDS011;5763;42.714;23.244;2022-09-03T14:31:01;4.13;;;3.53;;
11414;SDS011;5763;42.714;23.244;2022-09-03T14:33:38;2.90;;;2.70;;
11414;SDS011;5763;42.714;23.244;2022-09-03T14:36:18;3.55;;;3.13;;
11414;SDS011;5763;42.714;23.244;2022-09-03T14:48:32;2.67;;;2.47;;
11414;SDS011;5763;42.714;23.244;2022-09-03T14:51:13;4.00;;;3.05;;
11414;SDS011;5763;42.714;23.244;2022-09-03T14:53:58;2.80;;;2.60;;
11414;SDS011;5763;42.714;23.244;2022-09-03T14:56:48;3.38;;;2.80;;
11414;SDS011;5763;42.714;23.244;2022-09-03T14:59:26;3.42;;;3.13;;
11414;SDS011;5763;42.714;23.244;2022-09-03T15:02:30;4.75;;;3.83;;
11414;SDS011;5763;42.714;23.244;2022-09-03T15:05:17;4.35;;;3.70;;
11414;SDS011;5763;42.714;23.244;2022-09-03T15:08:01;4.43;;;3.17;;
11414;SDS011;5763;42.714;23.244;2022-09-03T15:10:35;3.40;;;3.10;;
11414;SDS011;5763;42.714;23.244;2022-09-03T15:13:08;3.15;;;2.90;;
11414;SDS011;5763;42.714;23.244;2022-09-03T15:15:46;4.43;;;3.58;;
11414;SDS011;5763;42.714;23.244;2022-09-03T15:18:23;3.60;;;3.30;;
11414;SDS011;5763;42.714;23.244;2022-09-03T15:20:57;3.70;;;3.40;;
11414;SDS011;5763;42.714;23.244;2022-09-03T15:23:47;3.28;;;2.97;;
11414;SDS011;5763;42.714;23.244;2022-09-03T15:26:29;3.42;;;3.13;;
11414;SDS011;5763;42.714;23.244;2022-09-03T15:29:15;3.28;;;2.97;;
11414;SDS011;5763;42.714;23.244;2022-09-03T15:31:57;3.53;;;3.20;;
11414;SDS011;5763;42.714;23.244;2022-09-03T15:34:39;3.85;;;3.28;;
11414;SDS011;5763;42.714;23.244;2022-09-03T15:37:18;4.10;;;3.70;;
11414;SDS011;5763;42.714;23.244;2022-09-03T15:39:56;3.95;;;3.55;;
11414;SDS011;5763;42.714;23.244;2022-09-03T15:42:27;3.85;;;3.55;;
11414;SDS011;5763;42.714;23.244;2022-09-03T15:44:59;5.03;;;3.50;;
11414;SDS011;5763;42.714;23.244;2022-09-03T15:47:34;3.92;;;3.25;;
11414;SDS011;5763;42.714;23.244;2022-09-03T15:50:09;3.70;;;3.30;;
11414;SDS011;5763;42.714;23.244;2022-09-03T15:52:47;4.28;;;3.88;;